createdAt,value
2022-10-11T00:00:13.210Z,102500.56
2022-10-11T00:00:44.527Z,102503.75
2022-10-11T00:01:16.019Z,102506.47
2022-10-11T00:01:47.456Z,102503.25
2022-10-11T00:02:18.867Z,102505.16
2022-10-11T00:02:50.389Z,102508.69
2022-10-11T00:03:21.809Z,102497.38
2022-10-11T00:03:53.329Z,102504.69
2022-10-11T00:04:24.851Z,102505.81
2022-10-11T00:04:56.157Z,102506.91
2022-10-11T00:05:28.187Z,102508.81
2022-10-11T00:05:59.829Z,102496.19
2022-10-11T00:06:31.506Z,102504.00
2022-10-11T00:07:02.931Z,102505.59
2022-10-11T00:07:34.255Z,102508.31
2022-10-11T00:08:06.108Z,102509.72
2022-10-11T00:08:37.497Z,102511.94
2022-10-11T00:09:11.541Z,102505.72
2022-10-11T00:09:43.177Z,102511.94
2022-10-11T00:10:14.492Z,102514.34
2022-10-11T00:10:45.914Z,102511.13
2022-10-11T00:11:17.309Z,102511.13
2022-10-11T00:11:49.105Z,102514.66
2022-10-11T00:12:20.420Z,102510.34
2022-10-11T00:12:54.632Z,102504.72
2022-10-11T00:13:26.522Z,102501.50
2022-10-11T00:13:59.025Z,102508.34
2022-10-11T00:14:30.644Z,102506.94
2022-10-11T00:15:02.721Z,102510.75
2022-10-11T00:15:34.644Z,102512.03
2022-10-11T00:16:11.941Z,102516.97
2022-10-11T00:16:44.461Z,102501.66
2022-10-11T00:17:15.835Z,102503.56
2022-10-11T00:17:47.589Z,102510.06
2022-10-11T00:18:18.956Z,102505.47
2022-10-11T00:18:50.352Z,102509.28
2022-10-11T00:19:21.797Z,102508.47
2022-10-11T00:19:53.122Z,102510.69
2022-10-11T00:20:24.806Z,102504.72
2022-10-11T00:21:08.247Z,102508.78
2022-10-11T00:21:39.640Z,102506.06
2022-10-11T00:22:10.995Z,102512.28
2022-10-11T00:22:42.982Z,102507.97
2022-10-11T00:23:14.823Z,102502.81
2022-10-11T00:23:46.430Z,102514.19
2022-10-11T00:24:17.766Z,102505.03
2022-10-11T00:24:49.358Z,102506.63
2022-10-11T00:25:20.723Z,102504.47
2022-10-11T00:26:00.117Z,102514.19
2022-10-11T00:26:31.661Z,102514.19
2022-10-11T00:27:03.041Z,102507.16
2022-10-11T00:27:35.596Z,102513.66
2022-10-11T00:28:07.055Z,102512.59
2022-10-11T00:28:38.789Z,102510.44
2022-10-11T00:29:10.197Z,102513.66
2022-10-11T00:29:41.701Z,102512.84
2022-10-11T00:30:13.340Z,102514.75
2022-10-11T00:30:44.697Z,102511.25
2022-10-11T00:31:16.436Z,102515.06
2022-10-11T00:31:47.817Z,102508.03
2022-10-11T00:32:19.387Z,102519.06
2022-10-11T00:32:50.987Z,102519.06
2022-10-11T00:33:22.560Z,102516.97
2022-10-11T00:33:54.776Z,102521.28
2022-10-11T00:34:26.269Z,102509.94
2022-10-11T00:34:59.635Z,102511.56
2022-10-11T00:35:30.986Z,102515.06
2022-10-11T00:36:02.900Z,102507.25
2022-10-11T00:36:34.541Z,102509.16
2022-10-11T00:37:05.944Z,102514.06
2022-10-11T00:37:39.169Z,102515.97
2022-10-11T00:38:10.657Z,102510.69
2022-10-11T00:38:42.829Z,102515.78
2022-10-11T00:39:14.608Z,102520.88
2022-10-11T00:39:46.226Z,102520.41
2022-10-11T00:40:20.451Z,102521.81
2022-10-11T00:40:51.845Z,102528.34
2022-10-11T00:41:23.204Z,102520.81
2022-10-11T00:41:55.001Z,102523.22
2022-10-11T00:42:27.020Z,102520.31
2022-10-11T00:42:58.572Z,102521.63
2022-10-11T00:43:31.604Z,102520.50
2022-10-11T00:44:14.616Z,102518.31
2022-10-11T00:44:47.952Z,102518.09
2022-10-11T00:45:27.794Z,102527.53
2022-10-11T00:46:17.153Z,102517.50
2022-10-11T00:46:57.488Z,102520.50
2022-10-11T00:47:28.835Z,102523.50
2022-10-11T00:48:10.400Z,102529.72
2022-10-11T00:48:53.513Z,102522.72
2022-10-11T00:49:36.789Z,102524.63
2022-10-11T00:50:10.649Z,102520.31
2022-10-11T00:50:42.497Z,102521.63
2022-10-11T00:51:18.058Z,102531.34
2022-10-11T00:51:53.623Z,102531.34
2022-10-11T00:52:41.911Z,102530.22
2022-10-11T00:53:13.394Z,102528.94
2022-10-11T00:53:47.345Z,102532.75
2022-10-11T00:54:23.410Z,102530.34
2022-10-11T00:54:55.860Z,102535.44
2022-10-11T00:55:33.437Z,102537.34
2022-10-11T00:56:12.942Z,102531.94
2022-10-11T00:56:49.182Z,102529.31
2022-10-11T00:57:25.067Z,102534.13
2022-10-11T00:57:58.709Z,102528.53
2022-10-11T00:58:31.543Z,102525.00
2022-10-11T00:59:08.364Z,102529.94
2022-10-11T00:59:42.630Z,102536.84
2022-10-11T01:00:15.283Z,102537.16
2022-10-11T01:00:46.671Z,102533.13
2022-10-11T01:01:18.181Z,102527.72
2022-10-11T01:01:49.753Z,102531.53
2022-10-11T01:02:23.165Z,102536.34
2022-10-11T01:02:55.034Z,102539.34
2022-10-11T01:03:28.287Z,102540.16
2022-10-11T01:04:01.480Z,102539.34
2022-10-11T01:04:34.171Z,102540.44
2022-10-11T01:05:28.234Z,102540.16
2022-10-11T01:05:59.789Z,102542.84
2022-10-11T01:06:31.335Z,102538.53
2022-10-11T01:07:02.784Z,102539.34
2022-10-11T01:07:34.494Z,102539.34
2022-10-11T01:08:07.125Z,102544.75
2022-10-11T01:08:39.039Z,102544.75
2022-10-11T01:09:11.735Z,102542.06
2022-10-11T01:09:43.070Z,102538.53
2022-10-11T01:10:14.713Z,102547.16
2022-10-11T01:10:46.101Z,102543.75
2022-10-11T01:11:20.746Z,102538.03
2022-10-11T01:11:55.423Z,102543.47
2022-10-11T01:12:30.777Z,102547.16
2022-10-11T01:13:48.146Z,102544.47
2022-10-11T01:15:00.379Z,102548.28
2022-10-11T01:15:55.375Z,102550.69
2022-10-11T01:16:42.533Z,102551.47
2022-10-11T01:17:22.614Z,102550.38
2022-10-11T01:18:20.420Z,102551.19
2022-10-11T01:19:19.825Z,102555.78
2022-10-11T01:19:51.091Z,102548.78
2022-10-11T01:20:30.841Z,102547.97
2022-10-11T01:21:07.833Z,102552.28
2022-10-11T01:21:49.067Z,102548.28
2022-10-11T01:22:58.869Z,102552.59
2022-10-11T01:23:55.671Z,102552.59
2022-10-11T01:25:23.656Z,102552.06
2022-10-11T01:26:01.016Z,102555.88
2022-10-11T01:27:01.974Z,102551.88
2022-10-11T01:28:10.414Z,102553.78
2022-10-11T01:29:12.442Z,102552.19
2022-10-11T01:29:58.701Z,102559.81
2022-10-11T01:30:32.613Z,102550.41
2022-10-11T01:31:16.479Z,102552.28
2022-10-11T01:31:53.836Z,102555.31
2022-10-11T01:32:37.714Z,102554.00
2022-10-11T01:33:08.993Z,102558.31
2022-10-11T01:33:48.578Z,102552.38
2022-10-11T01:34:29.964Z,102549.78
2022-10-11T01:35:24.960Z,102558.91
2022-10-11T01:36:14.207Z,102555.41
2022-10-11T01:36:58.278Z,102559.19
2022-10-11T01:38:10.127Z,102558.91
2022-10-11T01:38:52.583Z,102563.50
2022-10-11T01:39:46.168Z,102565.41
2022-10-11T01:40:29.135Z,102562.72
2022-10-11T01:41:07.134Z,102561.91
2022-10-11T01:41:41.949Z,102561.91
2022-10-11T01:42:14.624Z,102568.63
2022-10-11T01:42:47.456Z,102562.72
2022-10-11T01:43:21.281Z,102563.00
2022-10-11T01:43:58.388Z,102572.44
2022-10-11T01:44:30.651Z,102556.50
2022-10-11T01:45:02.319Z,102567.63
2022-10-11T01:45:35.054Z,102562.19
2022-10-11T01:46:08.755Z,102563.81
2022-10-11T01:46:40.905Z,102562.50
2022-10-11T01:47:12.245Z,102560.91
2022-10-11T01:47:45.660Z,102556.91
2022-10-11T01:48:17.238Z,102558.81
2022-10-11T01:48:54.743Z,102553.69
2022-10-11T01:49:26.133Z,102557.69
2022-10-11T01:50:00.820Z,102559.00
2022-10-11T01:50:39.554Z,102551.00
2022-10-11T01:51:10.914Z,102560.38
2022-10-11T01:51:47.459Z,102561.19
2022-10-11T01:52:19.220Z,102554.81
2022-10-11T01:52:51.324Z,102556.41
2022-10-11T01:53:42.464Z,102565.03
2022-10-11T01:55:09.253Z,102557.22
2022-10-11T01:55:53.248Z,102561.81
2022-10-11T01:56:52.976Z,102567.22
2022-10-11T01:57:33.169Z,102569.13
2022-10-11T01:58:19.668Z,102558.59
2022-10-11T01:59:06.720Z,102554.28
2022-10-11T01:59:55.654Z,102558.59
2022-10-11T02:00:34.807Z,102562.19
2022-10-11T02:01:27.896Z,102567.31
2022-10-11T02:02:29.389Z,102564.59
2022-10-11T02:03:26.583Z,102567.31
2022-10-11T02:04:10.033Z,102567.59
2022-10-11T02:05:02.240Z,102566.31
2022-10-11T02:06:05.791Z,102567.09
2022-10-11T02:06:55.582Z,102565.50
2022-10-11T02:07:33.136Z,102570.41
2022-10-11T02:08:23.139Z,102564.78
2022-10-11T02:09:12.236Z,102571.00
2022-10-11T02:10:07.053Z,102568.59
2022-10-11T02:10:44.725Z,102574.00
2022-10-11T02:11:24.695Z,102567.00
2022-10-11T02:12:02.145Z,102563.81
2022-10-11T02:12:48.890Z,102567.31
2022-10-11T02:13:34.122Z,102570.00
2022-10-11T02:14:31.701Z,102565.09
2022-10-11T02:15:08.160Z,102573.50
2022-10-11T02:15:42.271Z,102573.22
2022-10-11T02:16:19.772Z,102568.09
2022-10-11T02:16:56.436Z,102570.50
2022-10-11T02:17:34.333Z,102563.28
2022-10-11T02:18:11.095Z,102570.81
2022-10-11T02:18:46.866Z,102567.00
2022-10-11T02:19:21.755Z,102574.00
2022-10-11T02:19:56.658Z,102572.41
2022-10-11T02:20:32.130Z,102570.50
2022-10-11T02:21:06.743Z,102566.50
2022-10-11T02:21:41.489Z,102568.59
2022-10-11T02:22:18.691Z,102572.09
2022-10-11T02:22:54.265Z,102561.09
2022-10-11T02:23:32.584Z,102572.91
2022-10-11T02:24:11.318Z,102558.69
2022-10-11T02:24:48.278Z,102560.06
2022-10-11T02:25:27.380Z,102563.81
2022-10-11T02:25:59.714Z,102554.97
2022-10-11T02:26:34.250Z,102555.25
2022-10-11T02:27:06.440Z,102556.88
2022-10-11T02:27:40.538Z,102560.38
2022-10-11T02:28:17.228Z,102563.38
2022-10-11T02:28:50.891Z,102559.06
2022-10-11T02:29:26.129Z,102561.97
2022-10-11T02:30:01.513Z,102560.06
2022-10-11T02:30:34.923Z,102559.56
2022-10-11T02:31:08.064Z,102568.19
2022-10-11T02:31:41.205Z,102567.38
2022-10-11T02:32:14.176Z,102556.34
2022-10-11T02:32:47.275Z,102564.38
2022-10-11T02:33:23.407Z,102567.09
2022-10-11T02:34:19.709Z,102563.88
2022-10-11T02:34:57.685Z,102571.69
2022-10-11T02:35:34.061Z,102570.91
2022-10-11T02:36:14.178Z,102572.50
2022-10-11T02:37:01.960Z,102574.09
2022-10-11T02:37:55.766Z,102577.63
2022-10-11T02:38:34.191Z,102576.00
2022-10-11T02:39:31.645Z,102577.09
2022-10-11T02:40:10.483Z,102573.59
2022-10-11T02:40:48.214Z,102579.81
2022-10-11T02:41:29.338Z,102577.91
2022-10-11T02:42:05.507Z,102582.50
2022-10-11T02:42:43.090Z,102581.72
2022-10-11T02:43:25.542Z,102578.19
2022-10-11T02:44:04.803Z,102580.91
2022-10-11T02:44:42.617Z,102581.72
2022-10-11T02:45:21.661Z,102574.69
2022-10-11T02:45:57.753Z,102570.38
2022-10-11T02:46:30.592Z,102575.78
2022-10-11T02:47:03.340Z,102573.97
2022-10-11T02:47:35.020Z,102582.81
2022-10-11T02:48:08.541Z,102578.50
2022-10-11T02:48:39.922Z,102576.38
2022-10-11T02:49:12.729Z,102578.78
2022-10-11T02:49:44.126Z,102585.00
2022-10-11T02:50:15.929Z,102574.78
2022-10-11T02:50:47.321Z,102576.91
2022-10-11T02:51:18.930Z,102583.41
2022-10-11T02:51:50.291Z,102571.78
2022-10-11T02:52:21.723Z,102574.47
2022-10-11T02:52:53.132Z,102569.66
2022-10-11T02:53:26.058Z,102582.59
2022-10-11T02:53:57.891Z,102576.16
2022-10-11T02:54:29.444Z,102572.59
2022-10-11T02:55:00.745Z,102581.78
2022-10-11T02:55:32.639Z,102575.06
2022-10-11T02:56:04.610Z,102581.28
2022-10-11T02:56:36.224Z,102579.38
2022-10-11T02:57:07.532Z,102584.78
2022-10-11T02:57:38.887Z,102578.38
2022-10-11T02:58:10.221Z,102582.88
2022-10-11T02:58:41.669Z,102578.59
2022-10-11T02:59:13.012Z,102584.78
2022-10-11T02:59:44.329Z,102581.28
2022-10-11T03:00:16.010Z,102584.78
2022-10-11T03:00:48.097Z,102584.00
2022-10-11T03:01:19.478Z,102582.69
2022-10-11T03:01:51.137Z,102582.88
2022-10-11T03:02:22.534Z,102580.78
2022-10-11T03:02:53.866Z,102580.78
2022-10-11T03:03:25.274Z,102578.88
2022-10-11T03:03:56.811Z,102584.56
2022-10-11T03:04:28.171Z,102573.25
2022-10-11T03:05:00.153Z,102579.16
2022-10-11T03:05:35.382Z,102574.38
2022-10-11T03:06:07.376Z,102578.38
2022-10-11T03:06:39.028Z,102588.38
2022-10-11T03:07:10.348Z,102586.78
2022-10-11T03:07:41.700Z,102585.19
2022-10-11T03:08:15.766Z,102588.38
2022-10-11T03:08:47.184Z,102586.78
2022-10-11T03:09:19.256Z,102580.38
2022-10-11T03:09:50.631Z,102580.88
2022-10-11T03:10:21.968Z,102584.19
2022-10-11T03:10:53.474Z,102585.50
2022-10-11T03:11:25.137Z,102583.88
2022-10-11T03:11:56.470Z,102590.59
2022-10-11T03:12:27.881Z,102586.00
2022-10-11T03:12:59.233Z,102575.25
2022-10-11T03:13:30.570Z,102589.47
2022-10-11T03:14:01.966Z,102584.69
2022-10-11T03:14:33.407Z,102587.38
2022-10-11T03:15:05.631Z,102592.78
2022-10-11T03:15:36.978Z,102588.50
2022-10-11T03:16:08.913Z,102586.38
2022-10-11T03:16:40.406Z,102580.97
2022-10-11T03:17:35.067Z,102578.56
2022-10-11T03:18:03.402Z,102576.94
2022-10-11T03:18:35.048Z,102573.44
2022-10-11T03:19:06.411Z,102582.06
2022-10-11T03:19:37.773Z,102588.28
2022-10-11T03:20:09.493Z,102580.97
2022-10-11T03:20:40.847Z,102583.16
2022-10-11T03:21:12.368Z,102579.06
2022-10-11T03:21:43.694Z,102590.38
2022-10-11T03:22:15.727Z,102579.88
2022-10-11T03:22:47.049Z,102589.59
2022-10-11T03:23:18.710Z,102582.28
2022-10-11T03:23:50.070Z,102589.59
2022-10-11T03:24:21.463Z,102582.28
2022-10-11T03:24:52.828Z,102586.59
2022-10-11T03:25:24.173Z,102585.78
2022-10-11T03:25:55.534Z,102588.19
2022-10-11T03:26:27.089Z,102586.59
2022-10-11T03:26:58.485Z,102596.00
2022-10-11T03:27:29.810Z,102586.28
2022-10-11T03:28:01.219Z,102581.19
2022-10-11T03:28:33.451Z,102585.50
2022-10-11T03:29:04.967Z,102584.19
2022-10-11T03:29:36.457Z,102587.38
2022-10-11T03:30:13.330Z,102586.00
2022-10-11T03:30:48.786Z,102581.97
2022-10-11T03:31:21.653Z,102575.56
2022-10-11T03:31:53.029Z,102586.59
2022-10-11T03:32:24.689Z,102581.47
2022-10-11T03:32:56.579Z,102585.78
2022-10-11T03:33:28.027Z,102581.78
2022-10-11T03:33:59.369Z,102584.47
2022-10-11T03:34:30.846Z,102585.56
2022-10-11T03:35:02.434Z,102585.28
2022-10-11T03:35:33.799Z,102579.34
2022-10-11T03:36:05.887Z,102592.56
2022-10-11T03:36:37.379Z,102597.19
2022-10-11T03:37:08.727Z,102584.75
2022-10-11T03:37:40.073Z,102587.75
2022-10-11T03:38:20.634Z,102590.69
2022-10-11T03:38:52.042Z,102595.78
2022-10-11T03:39:23.471Z,102595.28
2022-10-11T03:39:54.853Z,102600.41
2022-10-11T03:40:26.219Z,102588.56
2022-10-11T03:40:57.603Z,102597.19
2022-10-11T03:41:29.793Z,102597.97
2022-10-11T03:42:01.118Z,102596.38
2022-10-11T03:42:32.442Z,102593.16
2022-10-11T03:43:03.989Z,102593.47
2022-10-11T03:43:35.703Z,102595.38
2022-10-11T03:44:07.082Z,102589.16
2022-10-11T03:44:38.770Z,102595.06
2022-10-11T03:45:10.573Z,102600.97
2022-10-11T03:45:45.109Z,102600.19
2022-10-11T03:46:16.430Z,102601.28
2022-10-11T03:46:47.744Z,102598.34
2022-10-11T03:47:19.189Z,102594.03
2022-10-11T03:47:50.535Z,102600.19
2022-10-11T03:48:21.994Z,102603.97
2022-10-11T03:48:53.338Z,102596.16
2022-10-11T03:49:24.730Z,102604.28
2022-10-11T03:49:56.072Z,102604.56
2022-10-11T03:50:27.426Z,102605.97
2022-10-11T03:50:58.817Z,102603.84
2022-10-11T03:51:31.309Z,102615.38
2022-10-11T03:52:02.704Z,102602.56
2022-10-11T03:52:35.090Z,102611.94
2022-10-11T03:53:06.903Z,102613.78
2022-10-11T03:53:38.657Z,102614.56
2022-10-11T03:54:10.011Z,102611.06
2022-10-11T03:54:41.350Z,102614.28
2022-10-11T03:55:12.744Z,102617.28
2022-10-11T03:55:44.057Z,102616.19
2022-10-11T03:56:16.235Z,102615.38
2022-10-11T03:56:48.561Z,102621.59
2022-10-11T03:57:20.184Z,102619.97
2022-10-11T03:57:51.490Z,102609.47
2022-10-11T03:58:23.503Z,102621.59
2022-10-11T03:58:55.665Z,102618.88
2022-10-11T03:59:27.029Z,102610.56
2022-10-11T03:59:58.368Z,102611.06
2022-10-11T04:00:29.752Z,102616.19
2022-10-11T04:01:01.079Z,102615.88
2022-10-11T04:01:37.480Z,102614.00
2022-10-11T04:02:09.127Z,102617.78
2022-10-11T04:02:40.773Z,102615.38
2022-10-11T04:03:12.135Z,102617.78
2022-10-11T04:03:43.461Z,102611.88
2022-10-11T04:04:14.768Z,102621.06
2022-10-11T04:04:46.288Z,102621.59
2022-10-11T04:05:18.084Z,102618.38
2022-10-11T04:05:49.637Z,102617.56
2022-10-11T04:06:20.951Z,102619.47
2022-10-11T04:06:52.474Z,102611.66
2022-10-11T04:07:23.854Z,102619.47
2022-10-11T04:07:55.209Z,102620.28
2022-10-11T04:08:26.756Z,102613.56
2022-10-11T04:08:58.200Z,102619.19
2022-10-11T04:09:29.617Z,102612.47
2022-10-11T04:10:00.976Z,102615.16
2022-10-11T04:10:32.434Z,102609.25
2022-10-11T04:11:03.936Z,102616.75
2022-10-11T04:11:35.378Z,102614.97
2022-10-11T04:12:07.038Z,102616.53
2022-10-11T04:12:39.290Z,102618.66
2022-10-11T04:13:11.816Z,102623.78
2022-10-11T04:13:43.130Z,102630.00
2022-10-11T04:14:14.549Z,102616.75
2022-10-11T04:14:45.892Z,102612.75
2022-10-11T04:15:17.315Z,102621.06
2022-10-11T04:15:48.662Z,102624.38
2022-10-11T04:16:20.063Z,102622.97
2022-10-11T04:16:51.405Z,102615.75
2022-10-11T04:17:22.758Z,102611.94
2022-10-11T04:17:54.077Z,102618.38
2022-10-11T04:18:25.398Z,102617.88
2022-10-11T04:18:56.765Z,102609.47
2022-10-11T04:19:28.705Z,102619.19
2022-10-11T04:20:00.200Z,102622.16
2022-10-11T04:20:31.638Z,102621.06
2022-10-11T04:21:03.178Z,102622.16
2022-10-11T04:21:34.644Z,102619.97
2022-10-11T04:22:06.025Z,102620.84
2022-10-11T04:22:38.389Z,102616.25
2022-10-11T04:23:09.836Z,102611.94
2022-10-11T04:23:41.213Z,102628.66
2022-10-11T04:24:12.650Z,102626.56
2022-10-11T04:24:43.972Z,102627.34
2022-10-11T04:25:15.436Z,102628.78
2022-10-11T04:25:48.206Z,102630.38
2022-10-11T04:26:19.542Z,102622.84
2022-10-11T04:26:50.871Z,102630.16
2022-10-11T04:27:22.221Z,102631.78
2022-10-11T04:27:53.566Z,102635.56
2022-10-11T04:28:25.132Z,102629.34
2022-10-11T04:28:56.587Z,102631.84
2022-10-11T04:29:32.371Z,102639.38
2022-10-11T04:30:04.544Z,102634.53
2022-10-11T04:30:35.868Z,102640.47
2022-10-11T04:31:07.894Z,102638.56
2022-10-11T04:31:39.256Z,102643.97
2022-10-11T04:32:10.576Z,102637.75
2022-10-11T04:32:42.375Z,102636.66
2022-10-11T04:33:13.980Z,102638.56
2022-10-11T04:33:45.310Z,102636.16
2022-10-11T04:34:17.291Z,102639.66
2022-10-11T04:34:48.839Z,102641.56
2022-10-11T04:35:20.146Z,102639.16
2022-10-11T04:35:55.453Z,102647.25
2022-10-11T04:36:26.818Z,102642.94
2022-10-11T04:36:58.204Z,102643.75
2022-10-11T04:37:29.547Z,102632.72
2022-10-11T04:38:00.909Z,102645.94
2022-10-11T04:38:32.391Z,102633.81
2022-10-11T04:39:03.809Z,102634.38
2022-10-11T04:39:35.247Z,102635.19
2022-10-11T04:40:08.207Z,102641.63
2022-10-11T04:40:39.540Z,102646.22
2022-10-11T04:41:13.760Z,102648.13
2022-10-11T04:41:45.240Z,102636.50
2022-10-11T04:42:16.611Z,102640.31
2022-10-11T04:42:48.002Z,102637.59
2022-10-11T04:43:19.691Z,102639.72
2022-10-11T04:43:51.010Z,102637.09
2022-10-11T04:44:22.551Z,102647.84
2022-10-11T04:44:53.849Z,102643.53
2022-10-11T04:45:25.274Z,102646.22
2022-10-11T04:45:56.601Z,102640.59
2022-10-11T04:46:28.421Z,102642.72
2022-10-11T04:46:59.846Z,102638.69
2022-10-11T04:47:31.191Z,102634.38
2022-10-11T04:48:02.630Z,102637.59
2022-10-11T04:48:34.318Z,102645.13
2022-10-11T04:49:06.051Z,102652.66
2022-10-11T04:49:37.361Z,102638.91
2022-10-11T04:50:08.767Z,102637.59
2022-10-11T04:50:40.206Z,102645.94
2022-10-11T04:51:11.550Z,102643.22
2022-10-11T04:51:42.890Z,102644.63
2022-10-11T04:52:14.272Z,102652.94
2022-10-11T04:52:45.819Z,102643.81
2022-10-11T04:53:17.140Z,102647.53
2022-10-11T04:53:49.416Z,102651.03
2022-10-11T04:54:20.931Z,102641.63
2022-10-11T04:54:52.257Z,102654.84
2022-10-11T04:55:23.765Z,102652.94
2022-10-11T04:56:05.060Z,102646.22
2022-10-11T04:56:36.650Z,102652.94
2022-10-11T04:57:07.991Z,102649.94
2022-10-11T04:57:39.367Z,102646.44
2022-10-11T04:58:10.701Z,102648.84
2022-10-11T04:58:42.111Z,102650.75
2022-10-11T04:59:13.477Z,102651.56
2022-10-11T04:59:49.898Z,102648.06
2022-10-11T05:00:22.084Z,102659.09
2022-10-11T05:00:53.700Z,102657.19
2022-10-11T05:01:25.061Z,102654.50
2022-10-11T05:01:56.677Z,102658.78
2022-10-11T05:02:28.121Z,102652.59
2022-10-11T05:02:59.723Z,102655.28
2022-10-11T05:03:31.092Z,102649.09
2022-10-11T05:04:02.852Z,102651.19
2022-10-11T05:04:34.177Z,102659.00
2022-10-11T05:05:06.018Z,102654.72
2022-10-11T05:05:37.517Z,102660.59
2022-10-11T05:06:09.778Z,102653.28
2022-10-11T05:06:41.621Z,102650.88
2022-10-11T05:07:12.938Z,102661.09
2022-10-11T05:07:44.350Z,102654.91
2022-10-11T05:08:16.129Z,102648.41
2022-10-11T05:08:47.494Z,102650.81
2022-10-11T05:09:19.131Z,102657.31
2022-10-11T05:09:50.439Z,102650.53
2022-10-11T05:10:21.768Z,102650.53
2022-10-11T05:11:01.005Z,102645.41
2022-10-11T05:11:32.343Z,102649.41
2022-10-11T05:12:03.978Z,102658.34
2022-10-11T05:12:35.393Z,102647.53
2022-10-11T05:13:07.446Z,102659.94
2022-10-11T05:13:38.902Z,102654.53
2022-10-11T05:14:10.453Z,102659.66
2022-10-11T05:14:41.987Z,102646.22
2022-10-11T05:15:13.365Z,102647.53
2022-10-11T05:15:44.682Z,102654.25
2022-10-11T05:16:16.804Z,102656.38
2022-10-11T05:16:48.612Z,102660.97
2022-10-11T05:17:20.022Z,102651.25
2022-10-11T05:17:51.330Z,102652.56
2022-10-11T05:18:23.203Z,102653.38
2022-10-11T05:18:54.524Z,102646.66
2022-10-11T05:19:25.840Z,102662.28
2022-10-11T05:19:57.151Z,102650.44
2022-10-11T05:20:28.456Z,102665.00
2022-10-11T05:21:06.036Z,102662.28
2022-10-11T05:21:37.361Z,102659.88
2022-10-11T05:22:08.967Z,102662.28
2022-10-11T05:22:40.279Z,102651.25
2022-10-11T05:23:11.653Z,102666.09
2022-10-11T05:23:43.011Z,102665.50
2022-10-11T05:24:14.351Z,102657.47
2022-10-11T05:24:45.703Z,102660.97
2022-10-11T05:25:17.147Z,102663.91
2022-10-11T05:25:48.501Z,102662.28
2022-10-11T05:26:20.684Z,102668.50
2022-10-11T05:26:52.017Z,102669.31
2022-10-11T05:27:23.330Z,102657.97
2022-10-11T05:27:54.698Z,102663.09
2022-10-11T05:28:26.821Z,102664.19
2022-10-11T05:28:58.514Z,102668.50
2022-10-11T05:29:29.909Z,102666.59
2022-10-11T05:30:01.870Z,102663.38
2022-10-11T05:30:33.266Z,102665.78
2022-10-11T05:31:05.212Z,102662.28
2022-10-11T05:31:36.722Z,102662.28
2022-10-11T05:32:08.041Z,102669.31
2022-10-11T05:32:39.336Z,102661.78
2022-10-11T05:33:10.678Z,102668.50
2022-10-11T05:33:42.453Z,102666.66
2022-10-11T05:34:13.784Z,102669.06
2022-10-11T05:34:45.122Z,102663.97
2022-10-11T05:35:16.561Z,102672.00
2022-10-11T05:35:48.722Z,102660.97
2022-10-11T05:36:20.151Z,102672.81
2022-10-11T05:36:51.476Z,102659.88
2022-10-11T05:37:23.021Z,102660.16
2022-10-11T05:37:54.316Z,102670.91
2022-10-11T05:38:25.729Z,102671.78
2022-10-11T05:38:57.233Z,102674.41
2022-10-11T05:39:28.610Z,102669.59
2022-10-11T05:39:59.949Z,102658.56
2022-10-11T05:40:31.622Z,102673.91
2022-10-11T05:41:04.683Z,102668.78
2022-10-11T05:41:36.192Z,102673.91
2022-10-11T05:42:09.910Z,102676.09
2022-10-11T05:42:41.521Z,102678.78
2022-10-11T05:43:12.949Z,102674.78
2022-10-11T05:43:44.773Z,102674.47
2022-10-11T05:44:16.138Z,102673.69
2022-10-11T05:44:47.465Z,102672.88
2022-10-11T05:45:18.908Z,102669.66
2022-10-11T05:45:50.643Z,102670.97
2022-10-11T05:46:22.161Z,102669.06
2022-10-11T05:46:53.480Z,102663.44
2022-10-11T05:47:24.826Z,102665.34
2022-10-11T05:47:56.241Z,102672.06
2022-10-11T05:48:28.471Z,102675.56
2022-10-11T05:48:59.881Z,102668.56
2022-10-11T05:49:31.254Z,102675.56
2022-10-11T05:50:02.620Z,102674.25
2022-10-11T05:50:34.449Z,102673.69
2022-10-11T05:51:08.101Z,102673.16
2022-10-11T05:51:39.423Z,102679.09
2022-10-11T05:52:10.871Z,102675.56
2022-10-11T05:52:42.229Z,102670.97
2022-10-11T05:53:13.769Z,102670.16
2022-10-11T05:53:45.105Z,102672.38
2022-10-11T05:54:16.421Z,102674.78
2022-10-11T05:54:48.555Z,102681.28
2022-10-11T05:55:25.087Z,102671.28
2022-10-11T05:55:56.874Z,102682.31
2022-10-11T05:56:28.178Z,102680.97
2022-10-11T05:56:59.732Z,102680.47
2022-10-11T05:57:31.151Z,102678.28
2022-10-11T05:58:02.486Z,102683.69
2022-10-11T05:58:33.855Z,102676.69
2022-10-11T05:59:05.494Z,102677.78
2022-10-11T05:59:36.886Z,102686.91
2022-10-11T06:00:09.030Z,102678.56
2022-10-11T06:00:41.124Z,102689.59
2022-10-11T06:01:24.687Z,102685.81
2022-10-11T06:01:56.057Z,102689.59
2022-10-11T06:02:27.591Z,102686.91
2022-10-11T06:02:58.921Z,102687.72
2022-10-11T06:03:30.498Z,102683.69
2022-10-11T06:04:02.464Z,102684.19
2022-10-11T06:04:37.089Z,102688.50
2022-10-11T06:05:08.893Z,102693.13
2022-10-11T06:05:40.225Z,102693.13
2022-10-11T06:06:11.671Z,102686.38
2022-10-11T06:06:43.025Z,102689.91
2022-10-11T06:07:14.612Z,102689.31
2022-10-11T06:07:45.973Z,102695.53
2022-10-11T06:08:17.297Z,102693.63
2022-10-11T06:08:48.809Z,102689.03
2022-10-11T06:09:20.150Z,102684.50
2022-10-11T06:09:52.103Z,102685.81
2022-10-11T06:10:23.785Z,102690.94
2022-10-11T06:10:55.136Z,102693.91
2022-10-11T06:11:27.871Z,102696.84
2022-10-11T06:11:59.200Z,102693.63
2022-10-11T06:12:30.871Z,102697.13
2022-10-11T06:13:02.470Z,102698.75
2022-10-11T06:13:35.706Z,102686.09
2022-10-11T06:14:07.080Z,102684.09
2022-10-11T06:14:38.510Z,102683.91
2022-10-11T06:15:11.259Z,102689.31
2022-10-11T06:15:42.621Z,102690.13
2022-10-11T06:16:14.353Z,102697.31
2022-10-11T06:16:45.676Z,102697.03
2022-10-11T06:17:17.034Z,102688.41
2022-10-11T06:17:48.570Z,102695.94
2022-10-11T06:18:19.889Z,102697.03
2022-10-11T06:18:54.857Z,102695.94
2022-10-11T06:19:26.425Z,102698.66
2022-10-11T06:19:57.742Z,102702.16
2022-10-11T06:20:29.373Z,102699.44
2022-10-11T06:21:00.941Z,102693.00
2022-10-11T06:21:32.796Z,102698.66
2022-10-11T06:22:04.120Z,102696.53
2022-10-11T06:22:35.866Z,102704.06
2022-10-11T06:23:07.197Z,102698.94
2022-10-11T06:23:39.023Z,102705.66
2022-10-11T06:24:10.757Z,102704.84
2022-10-11T06:24:42.123Z,102700.84
2022-10-11T06:25:13.463Z,102698.41
2022-10-11T06:25:55.991Z,102696.84
2022-10-11T06:26:27.580Z,102707.28
2022-10-11T06:26:58.937Z,102703.53
2022-10-11T06:27:30.296Z,102702.16
2022-10-11T06:28:01.616Z,102703.47
2022-10-11T06:28:34.982Z,102706.19
2022-10-11T06:29:06.788Z,102707.78
2022-10-11T06:29:38.148Z,102704.56
2022-10-11T06:30:09.897Z,102706.19
2022-10-11T06:30:41.245Z,102716.41